Time;durP1;ratioP1;P1;durP2;ratioP2;P2;SDS_P1;SDS_P2;PMS_P1;PMS_P2;Temp;Humidity;BMP_temperature;BMP_pressure;BME280_temperature;BME280_humidity;BME280_pressure;Samples;Min_cycle;Max_cycle;Signal;HPM_P1;HPM_P2
2023/03/16 00:01:29;;;;;;;9.10;4.57;;;;;;;;;;748745;188;619221;-68
2023/03/16 00:03:55;;;;;;;6.73;4.70;;;;;;;;;;751675;187;631225;-72
2023/03/16 00:06:20;;;;;;;6.80;4.30;;;;;;;;;;754053;187;619608;-71
2023/03/16 00:08:46;;;;;;;9.10;4.87;;;;;;;;;;753129;187;623862;-72
2023/03/16 00:11:12;;;;;;;9.83;4.43;;;;;;;;;;754303;187;622001;-72
2023/03/16 00:13:38;;;;;;;8.13;5.00;;;;;;;;;;757410;187;629317;-72
2023/03/16 00:16:04;;;;;;;6.50;4.50;;;;;;;;;;751685;186;623537;-66
2023/03/16 00:18:30;;;;;;;6.13;4.00;;;;;;;;;;750187;183;631216;-67
2023/03/16 00:20:57;;;;;;;8.87;4.80;;;;;;;;;;751052;187;622378;-66
2023/03/16 00:23:26;;;;;;;16.67;5.20;;;;;;;;;;747508;188;630276;-73
2023/03/16 00:25:52;;;;;;;8.27;5.70;;;;;;;;;;753329;186;632167;-66
2023/03/16 00:28:15;;;;;;;7.63;5.47;;;;;;;;;;757325;187;614219;-67
2023/03/16 00:30:41;;;;;;;6.87;4.80;;;;;;;;;;752519;187;621443;-66
2023/03/16 00:33:06;;;;;;;8.80;5.63;;;;;;;;;;752029;187;630231;-74
2023/03/16 00:35:33;;;;;;;9.50;5.00;;;;;;;;;;751094;187;633320;-67
2023/03/16 00:37:58;;;;;;;12.10;6.00;;;;;;;;;;754595;187;617201;-66
2023/03/16 00:40:24;;;;;;;11.50;5.70;;;;;;;;;;751864;186;627919;-75
2023/03/16 00:42:50;;;;;;;8.00;5.33;;;;;;;;;;753163;184;607985;-67
2023/03/16 00:45:16;;;;;;;10.27;5.40;;;;;;;;;;760395;186;632345;-68
2023/03/16 00:47:41;;;;;;;13.70;5.47;;;;;;;;;;754348;186;615307;-76
2023/03/16 00:50:07;;;;;;;9.33;5.53;;;;;;;;;;752912;186;623772;-76
2023/03/16 00:52:34;;;;;;;7.23;4.90;;;;;;;;;;757909;186;616489;-75
2023/03/16 00:54:59;;;;;;;11.07;5.20;;;;;;;;;;753119;186;622697;-68
2023/03/16 00:57:26;;;;;;;7.10;4.97;;;;;;;;;;751138;186;626895;-67
2023/03/16 00:59:51;;;;;;;9.33;5.80;;;;;;;;;;752303;186;630145;-68
2023/03/16 01:02:18;;;;;;;8.23;5.70;;;;;;;;;;765019;180;627395;-68
2023/03/16 01:04:43;;;;;;;8.83;5.10;;;;;;;;;;750672;187;620159;-68
2023/03/16 01:07:09;;;;;;;8.60;5.80;;;;;;;;;;743640;187;636315;-75
2023/03/16 01:09:35;;;;;;;10.77;5.67;;;;;;;;;;747904;187;625513;-70
2023/03/16 01:12:00;;;;;;;12.53;6.00;;;;;;;;;;752040;186;654847;-70
2023/03/16 01:14:26;;;;;;;14.73;6.47;;;;;;;;;;753162;186;636693;-70
2023/03/16 01:16:52;;;;;;;10.47;6.30;;;;;;;;;;755626;187;625276;-71
2023/03/16 01:19:18;;;;;;;9.17;5.37;;;;;;;;;;752143;187;628345;-69
2023/03/16 01:21:43;;;;;;;10.77;6.53;;;;;;;;;;752991;187;628033;-70
2023/03/16 01:24:10;;;;;;;11.77;6.75;;;;;;;;;;752907;187;621548;-73
2023/03/16 01:26:36;;;;;;;9.37;6.80;;;;;;;;;;755654;185;619387;-74
2023/03/16 01:29:01;;;;;;;9.43;5.17;;;;;;;;;;750634;187;626827;-74
2023/03/16 01:31:28;;;;;;;13.83;6.10;;;;;;;;;;753505;186;628723;-75
2023/03/16 01:33:53;;;;;;;10.87;6.10;;;;;;;;;;759106;187;617967;-75
2023/03/16 01:36:19;;;;;;;16.07;9.93;;;;;;;;;;756733;186;625843;-70
2023/03/16 01:38:45;;;;;;;11.10;7.07;;;;;;;;;;755404;187;629674;-70
2023/03/16 01:41:11;;;;;;;11.53;7.60;;;;;;;;;;756577;187;617197;-72
2023/03/16 01:43:36;;;;;;;14.00;9.30;;;;;;;;;;754380;187;635853;-73
2023/03/16 01:46:18;;;;;;;10.90;7.10;;;;;;;;;;751215;187;641225;-70
2023/03/16 01:48:45;;;;;;;10.93;7.13;;;;;;;;;;748141;187;629187;-69
2023/03/16 01:51:29;;;;;;;13.57;7.83;;;;;;;;;;754118;186;626858;-72
2023/03/16 01:53:55;;;;;;;12.43;7.00;;;;;;;;;;743652;185;624378;-71
2023/03/16 01:56:22;;;;;;;15.53;7.30;;;;;;;;;;754127;186;627203;-69
2023/03/16 01:58:47;;;;;;;10.20;6.77;;;;;;;;;;748199;187;621087;-72
2023/03/16 02:01:13;;;;;;;11.90;7.13;;;;;;;;;;753581;186;652139;-69
2023/03/16 02:03:39;;;;;;;11.63;7.30;;;;;;;;;;758031;183;628976;-71
2023/03/16 02:06:06;;;;;;;17.00;7.20;;;;;;;;;;751568;186;627528;-69
2023/03/16 02:08:31;;;;;;;11.73;7.40;;;;;;;;;;747941;188;632424;-70
2023/03/16 02:10:57;;;;;;;15.67;7.70;;;;;;;;;;752983;187;617792;-71
2023/03/16 02:13:23;;;;;;;13.37;8.47;;;;;;;;;;756141;186;621029;-70
2023/03/16 02:15:49;;;;;;;12.80;7.70;;;;;;;;;;753183;187;641349;-71
2023/03/16 02:18:15;;;;;;;14.03;7.30;;;;;;;;;;748043;187;644522;-70
2023/03/16 02:20:42;;;;;;;12.47;8.07;;;;;;;;;;746242;187;625548;-69
2023/03/16 02:23:08;;;;;;;12.47;7.37;;;;;;;;;;745790;186;628752;-70
2023/03/16 02:25:36;;;;;;;14.30;7.20;;;;;;;;;;756294;186;617776;-70
2023/03/16 02:28:20;;;;;;;10.33;6.47;;;;;;;;;;756956;187;625440;-70
2023/03/16 02:30:46;;;;;;;14.00;6.53;;;;;;;;;;753518;187;625029;-70
2023/03/16 02:33:12;;;;;;;13.93;7.47;;;;;;;;;;746840;188;619656;-69
2023/03/16 02:35:37;;;;;;;14.17;7.93;;;;;;;;;;746916;188;628049;-70
2023/03/16 02:38:04;;;;;;;16.20;10.55;;;;;;;;;;742932;187;624861;-69
2023/03/16 02:40:29;;;;;;;17.97;9.80;;;;;;;;;;750433;187;615782;-68
2023/03/16 02:42:55;;;;;;;12.50;7.27;;;;;;;;;;746799;188;628391;-67
2023/03/16 02:45:21;;;;;;;13.73;7.03;;;;;;;;;;751786;187;635649;-70
2023/03/16 02:47:47;;;;;;;12.07;6.67;;;;;;;;;;757972;187;620654;-68
2023/03/16 02:50:13;;;;;;;17.30;11.40;;;;;;;;;;753367;184;626203;-68
2023/03/16 02:52:39;;;;;;;14.13;10.20;;;;;;;;;;750766;187;634251;-70
2023/03/16 02:55:05;;;;;;;11.63;8.00;;;;;;;;;;755373;187;623443;-70
2023/03/16 02:57:31;;;;;;;15.67;9.07;;;;;;;;;;752466;187;622082;-67
2023/03/16 02:59:57;;;;;;;17.20;10.20;;;;;;;;;;752360;187;613250;-70
2023/03/16 03:02:22;;;;;;;17.30;10.00;;;;;;;;;;755226;187;635732;-67
2023/03/16 03:04:48;;;;;;;14.87;8.60;;;;;;;;;;751721;187;640872;-68
2023/03/16 03:07:14;;;;;;;13.10;8.57;;;;;;;;;;751355;187;632287;-67
2023/03/16 03:09:42;;;;;;;18.93;10.40;;;;;;;;;;754860;186;620058;-67
2023/03/16 03:12:08;;;;;;;14.67;9.60;;;;;;;;;;757550;186;621052;-67
2023/03/16 03:14:36;;;;;;;15.07;10.50;;;;;;;;;;753647;186;623872;-67
2023/03/16 03:17:00;;;;;;;12.70;8.13;;;;;;;;;;753354;186;639546;-68
2023/03/16 03:19:26;;;;;;;14.77;9.57;;;;;;;;;;759249;186;617153;-67
2023/03/16 03:21:55;;;;;;;12.33;8.33;;;;;;;;;;754861;186;628654;-69
2023/03/16 03:24:18;;;;;;;14.70;8.70;;;;;;;;;;753068;186;625726;-67
2023/03/16 03:26:44;;;;;;;13.82;9.40;;;;;;;;;;753517;187;626809;-67
2023/03/16 03:29:10;;;;;;;19.60;10.37;;;;;;;;;;768096;182;625629;-69
2023/03/16 03:31:36;;;;;;;15.73;8.90;;;;;;;;;;753177;186;627491;-69
2023/03/16 03:34:05;;;;;;;14.03;9.30;;;;;;;;;;751072;187;618376;-67
2023/03/16 03:36:27;;;;;;;12.90;8.57;;;;;;;;;;754477;187;638197;-66
2023/03/16 03:38:53;;;;;;;14.33;9.50;;;;;;;;;;747415;188;623580;-67
2023/03/16 03:41:21;;;;;;;15.43;8.30;;;;;;;;;;749234;187;638903;-68
2023/03/16 03:43:45;;;;;;;11.77;8.40;;;;;;;;;;755588;187;613262;-69
2023/03/16 03:46:11;;;;;;;12.87;9.57;;;;;;;;;;754492;187;629616;-68
2023/03/16 03:48:36;;;;;;;11.33;8.10;;;;;;;;;;752059;187;631605;-68
2023/03/16 03:51:04;;;;;;;14.77;8.90;;;;;;;;;;754028;187;642039;-68
2023/03/16 03:53:28;;;;;;;13.50;6.90;;;;;;;;;;748522;185;621724;-68
2023/03/16 03:55:54;;;;;;;13.00;7.33;;;;;;;;;;750895;187;622720;-68
2023/03/16 03:58:20;;;;;;;12.37;7.77;;;;;;;;;;749633;187;630739;-68
2023/03/16 04:00:46;;;;;;;13.03;7.43;;;;;;;;;;757361;187;618907;-67
2023/03/16 04:03:12;;;;;;;16.70;8.40;;;;;;;;;;754623;187;627424;-68
2023/03/16 04:05:38;;;;;;;22.73;11.70;;;;;;;;;;751902;187;641318;-67
2023/03/16 04:08:04;;;;;;;14.10;8.77;;;;;;;;;;753924;187;622095;-68
2023/03/16 04:10:30;;;;;;;11.77;8.60;;;;;;;;;;751110;187;634254;-67
2023/03/16 04:12:55;;;;;;;14.63;8.30;;;;;;;;;;750760;186;635334;-68
2023/03/16 04:15:21;;;;;;;18.47;8.90;;;;;;;;;;757928;185;625831;-67
2023/03/16 04:17:47;;;;;;;10.67;7.47;;;;;;;;;;751594;187;623839;-74
2023/03/16 04:20:14;;;;;;;12.30;7.80;;;;;;;;;;751559;186;629543;-68
2023/03/16 04:22:39;;;;;;;14.53;9.17;;;;;;;;;;751817;186;627989;-68
2023/03/16 04:25:05;;;;;;;17.20;9.60;;;;;;;;;;757215;186;635851;-69
2023/03/16 04:27:35;;;;;;;16.07;8.70;;;;;;;;;;755221;186;620267;-67
2023/03/16 04:29:58;;;;;;;12.10;9.07;;;;;;;;;;753787;186;639336;-67
2023/03/16 04:32:25;;;;;;;12.57;8.47;;;;;;;;;;755879;186;623612;-69
2023/03/16 04:34:48;;;;;;;13.40;8.10;;;;;;;;;;754310;186;639231;-66
2023/03/16 04:37:14;;;;;;;13.63;9.87;;;;;;;;;;751959;186;655572;-68
2023/03/16 04:39:40;;;;;;;21.57;10.00;;;;;;;;;;756231;187;639543;-68
2023/03/16 04:42:06;;;;;;;12.50;8.23;;;;;;;;;;750652;187;627454;-67
2023/03/16 04:44:31;;;;;;;16.53;9.20;;;;;;;;;;751538;187;638082;-68
2023/03/16 04:46:58;;;;;;;15.03;8.40;;;;;;;;;;751661;187;651525;-69
2023/03/16 04:49:23;;;;;;;16.80;9.47;;;;;;;;;;756996;187;633039;-67
2023/03/16 04:51:49;;;;;;;13.40;8.83;;;;;;;;;;747708;187;615845;-68
2023/03/16 04:54:15;;;;;;;18.10;9.73;;;;;;;;;;751030;187;639227;-67
2023/03/16 04:56:41;;;;;;;15.37;9.67;;;;;;;;;;753895;187;636691;-68
2023/03/16 04:59:07;;;;;;;15.37;8.47;;;;;;;;;;751832;187;637131;-68
2023/03/16 05:01:32;;;;;;;13.17;7.73;;;;;;;;;;750747;186;625442;-68
2023/03/16 05:03:58;;;;;;;10.10;7.60;;;;;;;;;;756517;187;618171;-68
2023/03/16 05:06:24;;;;;;;14.50;8.40;;;;;;;;;;752122;187;628267;-67
2023/03/16 05:08:50;;;;;;;14.23;8.50;;;;;;;;;;748176;187;627400;-67
2023/03/16 05:11:16;;;;;;;18.37;9.87;;;;;;;;;;753312;187;635056;-67
2023/03/16 05:13:42;;;;;;;14.70;8.80;;;;;;;;;;747624;187;639378;-68
2023/03/16 05:16:07;;;;;;;12.77;7.77;;;;;;;;;;741762;187;637507;-67
2023/03/16 05:18:33;;;;;;;13.60;8.70;;;;;;;;;;751608;187;627622;-68
2023/03/16 05:20:59;;;;;;;11.57;8.53;;;;;;;;;;750732;187;629908;-67
2023/03/16 05:23:25;;;;;;;13.03;7.90;;;;;;;;;;748594;187;645759;-69
2023/03/16 05:25:51;;;;;;;11.27;7.50;;;;;;;;;;751183;187;635809;-68
2023/03/16 05:28:17;;;;;;;12.90;7.97;;;;;;;;;;757366;184;631379;-71
2023/03/16 05:30:44;;;;;;;14.47;8.37;;;;;;;;;;751549;187;638632;-69
2023/03/16 05:33:08;;;;;;;14.80;7.70;;;;;;;;;;752562;186;627998;-69
2023/03/16 05:35:34;;;;;;;17.03;8.50;;;;;;;;;;756250;186;677549;-68
2023/03/16 05:38:00;;;;;;;11.50;8.60;;;;;;;;;;752836;186;679848;-68
2023/03/16 05:40:26;;;;;;;12.40;7.67;;;;;;;;;;753341;186;647419;-67
2023/03/16 05:42:54;;;;;;;13.97;8.57;;;;;;;;;;750500;187;633186;-69
2023/03/16 05:45:20;;;;;;;12.97;8.87;;;;;;;;;;753000;186;637847;-71
2023/03/16 05:47:46;;;;;;;12.70;8.00;;;;;;;;;;754535;186;634771;-70
2023/03/16 05:50:11;;;;;;;18.20;9.20;;;;;;;;;;751493;186;642901;-70
2023/03/16 05:52:37;;;;;;;12.63;8.70;;;;;;;;;;754969;187;630866;-69
2023/03/16 05:55:04;;;;;;;15.07;9.70;;;;;;;;;;752513;186;637865;-70
2023/03/16 05:57:30;;;;;;;14.67;8.90;;;;;;;;;;749902;187;637786;-69
2023/03/16 05:59:55;;;;;;;12.50;7.80;;;;;;;;;;754834;186;619406;-69
2023/03/16 06:02:21;;;;;;;11.17;8.50;;;;;;;;;;749116;187;636074;-69
2023/03/16 06:04:47;;;;;;;17.10;9.10;;;;;;;;;;751457;187;623425;-70
2023/03/16 06:07:13;;;;;;;13.10;8.20;;;;;;;;;;750296;187;625204;-68
2023/03/16 06:09:38;;;;;;;11.43;7.67;;;;;;;;;;754395;187;657981;-69
2023/03/16 06:12:04;;;;;;;15.83;9.07;;;;;;;;;;752558;185;643384;-70
2023/03/16 06:14:30;;;;;;;17.07;9.33;;;;;;;;;;749277;186;638536;-69
2023/03/16 06:16:56;;;;;;;12.03;8.30;;;;;;;;;;753060;186;625278;-70
2023/03/16 06:19:22;;;;;;;13.10;8.90;;;;;;;;;;748627;187;626964;-71
2023/03/16 06:21:48;;;;;;;20.03;9.70;;;;;;;;;;746783;187;659731;-69
2023/03/16 06:24:14;;;;;;;15.23;8.70;;;;;;;;;;754180;187;656252;-71
2023/03/16 06:26:40;;;;;;;15.90;8.73;;;;;;;;;;751655;186;657733;-70
2023/03/16 06:29:05;;;;;;;14.37;9.20;;;;;;;;;;751570;187;708989;-71
2023/03/16 06:31:32;;;;;;;20.43;9.33;;;;;;;;;;752990;187;653803;-70
2023/03/16 06:33:57;;;;;;;14.57;9.20;;;;;;;;;;754721;187;623751;-71
2023/03/16 06:36:23;;;;;;;15.70;9.90;;;;;;;;;;752011;187;630547;-71
2023/03/16 06:38:49;;;;;;;22.00;9.50;;;;;;;;;;751432;187;622726;-69
2023/03/16 06:41:15;;;;;;;18.83;10.50;;;;;;;;;;758000;186;619362;-70
2023/03/16 06:43:41;;;;;;;16.63;10.40;;;;;;;;;;753691;186;619063;-72
2023/03/16 06:46:06;;;;;;;20.40;10.33;;;;;;;;;;754001;186;645306;-68
2023/03/16 06:48:32;;;;;;;14.90;9.50;;;;;;;;;;758733;186;638014;-74
2023/03/16 06:50:58;;;;;;;21.77;12.37;;;;;;;;;;753173;186;623734;-66
2023/03/16 06:53:24;;;;;;;27.57;14.07;;;;;;;;;;751855;187;624628;-75
2023/03/16 06:55:50;;;;;;;22.23;13.73;;;;;;;;;;755719;186;621329;-68
2023/03/16 06:58:15;;;;;;;23.93;13.00;;;;;;;;;;756927;186;629670;-77
2023/03/16 07:00:41;;;;;;;18.90;12.87;;;;;;;;;;750611;187;633105;-77
2023/03/16 07:03:07;;;;;;;28.30;17.93;;;;;;;;;;752519;187;619559;-76
2023/03/16 07:05:33;;;;;;;21.33;12.03;;;;;;;;;;757042;187;629312;-67
2023/03/16 07:08:00;;;;;;;21.23;12.87;;;;;;;;;;748925;187;630767;-77
2023/03/16 07:10:25;;;;;;;22.37;14.30;;;;;;;;;;747240;187;645917;-76
2023/03/16 07:12:50;;;;;;;29.43;15.90;;;;;;;;;;754845;187;630747;-75
2023/03/16 07:15:16;;;;;;;25.70;15.03;;;;;;;;;;750284;187;633757;-68
2023/03/16 07:17:42;;;;;;;20.50;13.13;;;;;;;;;;755214;186;618838;-76
2023/03/16 07:20:09;;;;;;;26.83;14.57;;;;;;;;;;754101;187;633632;-76
2023/03/16 07:22:34;;;;;;;22.60;11.50;;;;;;;;;;754397;183;631345;-67
2023/03/16 07:25:00;;;;;;;12.77;8.20;;;;;;;;;;751596;187;631240;-68
2023/03/16 07:27:27;;;;;;;14.13;7.97;;;;;;;;;;752783;187;628943;-68
2023/03/16 07:29:52;;;;;;;17.03;7.37;;;;;;;;;;758260;187;629072;-68
2023/03/16 07:32:18;;;;;;;15.43;8.03;;;;;;;;;;754610;187;632245;-73
2023/03/16 07:34:44;;;;;;;16.10;9.67;;;;;;;;;;754363;187;625914;-73
2023/03/16 07:37:09;;;;;;;16.17;11.80;;;;;;;;;;757520;187;622949;-67
2023/03/16 07:39:35;;;;;;;7.70;6.37;;;;;;;;;;751915;187;618925;-68
2023/03/16 07:42:01;;;;;;;12.40;5.77;;;;;;;;;;752223;187;653314;-74
2023/03/16 07:44:27;;;;;;;23.43;14.80;;;;;;;;;;756857;187;626339;-69
2023/03/16 07:46:53;;;;;;;18.70;10.23;;;;;;;;;;752420;187;626302;-68
2023/03/16 07:49:19;;;;;;;8.67;5.20;;;;;;;;;;750045;186;626199;-68
2023/03/16 07:51:45;;;;;;;11.50;5.97;;;;;;;;;;753081;186;629595;-69
2023/03/16 07:54:10;;;;;;;11.80;6.70;;;;;;;;;;757366;186;629562;-68
2023/03/16 07:56:36;;;;;;;14.03;8.87;;;;;;;;;;755646;186;625363;-68
2023/03/16 07:59:02;;;;;;;7.50;5.50;;;;;;;;;;752774;186;621692;-69
2023/03/16 08:01:28;;;;;;;10.17;5.63;;;;;;;;;;756821;186;657473;-69
2023/03/16 08:03:54;;;;;;;13.40;7.50;;;;;;;;;;749917;187;636486;-68
2023/03/16 08:06:20;;;;;;;5.87;3.60;;;;;;;;;;752217;186;639208;-68
2023/03/16 08:08:45;;;;;;;19.00;8.50;;;;;;;;;;756261;187;619230;-68
2023/03/16 08:11:11;;;;;;;8.87;6.07;;;;;;;;;;754495;186;617019;-73
2023/03/16 08:13:37;;;;;;;14.27;9.97;;;;;;;;;;754426;186;628993;-73
2023/03/16 08:16:04;;;;;;;13.80;5.60;;;;;;;;;;750974;187;634292;-73
2023/03/16 08:18:29;;;;;;;12.80;5.63;;;;;;;;;;763731;183;625425;-72
2023/03/16 08:20:55;;;;;;;45.77;18.63;;;;;;;;;;747367;187;633429;-72
2023/03/16 08:23:22;;;;;;;8.47;4.60;;;;;;;;;;750032;187;627283;-67
2023/03/16 08:25:47;;;;;;;7.30;4.13;;;;;;;;;;753760;187;643939;-71
2023/03/16 08:28:14;;;;;;;10.33;5.13;;;;;;;;;;746347;187;624565;-67
2023/03/16 08:30:44;;;;;;;6.57;4.63;;;;;;;;;;754420;187;633364;-68
2023/03/16 08:33:10;;;;;;;11.37;4.30;;;;;;;;;;752288;187;629914;-67
2023/03/16 08:35:36;;;;;;;11.60;5.00;;;;;;;;;;748836;184;621028;-70
2023/03/16 08:38:02;;;;;;;8.07;3.90;;;;;;;;;;754148;186;625797;-67
2023/03/16 08:40:28;;;;;;;8.17;5.00;;;;;;;;;;752621;186;625751;-68
2023/03/16 08:42:54;;;;;;;5.77;4.10;;;;;;;;;;754221;187;623801;-67
2023/03/16 08:45:19;;;;;;;8.57;4.70;;;;;;;;;;750795;187;614979;-70
2023/03/16 08:47:45;;;;;;;8.87;4.60;;;;;;;;;;751182;187;629471;-68
2023/03/16 08:50:12;;;;;;;6.73;4.13;;;;;;;;;;757108;187;614703;-71
2023/03/16 08:52:39;;;;;;;11.03;5.83;;;;;;;;;;750499;187;661146;-69
2023/03/16 08:55:04;;;;;;;19.90;8.27;;;;;;;;;;751403;187;642840;-71
2023/03/16 08:57:31;;;;;;;7.67;3.57;;;;;;;;;;750890;186;633104;-67
2023/03/16 08:59:56;;;;;;;10.50;4.90;;;;;;;;;;763459;183;636550;-66
2023/03/16 09:02:23;;;;;;;9.03;4.43;;;;;;;;;;753006;183;619496;-67
2023/03/16 09:04:48;;;;;;;9.93;4.77;;;;;;;;;;748069;186;640719;-71
2023/03/16 09:07:14;;;;;;;8.70;3.83;;;;;;;;;;752017;187;640784;-68
2023/03/16 09:09:39;;;;;;;11.60;4.57;;;;;;;;;;752114;186;631281;-71
2023/03/16 09:12:05;;;;;;;6.30;3.57;;;;;;;;;;753695;186;638097;-68
2023/03/16 09:14:32;;;;;;;5.50;3.10;;;;;;;;;;757068;186;638934;-72
2023/03/16 09:16:58;;;;;;;5.70;3.50;;;;;;;;;;754441;186;634301;-71
2023/03/16 09:19:23;;;;;;;6.20;3.70;;;;;;;;;;755857;186;630231;-71
2023/03/16 09:21:50;;;;;;;8.57;3.70;;;;;;;;;;756746;186;628291;-71
2023/03/16 09:24:15;;;;;;;6.07;3.17;;;;;;;;;;752097;185;639792;-68
2023/03/16 09:26:41;;;;;;;10.53;3.43;;;;;;;;;;750595;185;632576;-71
2023/03/16 09:29:07;;;;;;;6.43;4.47;;;;;;;;;;750154;186;675634;-71
2023/03/16 09:31:33;;;;;;;4.33;2.77;;;;;;;;;;758243;187;629638;-70
2023/03/16 09:33:58;;;;;;;5.73;2.90;;;;;;;;;;752845;186;624594;-70
2023/03/16 09:36:25;;;;;;;6.10;2.47;;;;;;;;;;751196;187;637816;-69
2023/03/16 09:38:50;;;;;;;5.03;2.37;;;;;;;;;;755401;187;626406;-69
2023/03/16 09:41:23;;;;;;;5.30;3.00;;;;;;;;;;751798;187;634453;-67
2023/03/16 09:43:55;;;;;;;5.27;2.23;;;;;;;;;;750921;187;625698;-67
2023/03/16 09:46:23;;;;;;;6.90;3.07;;;;;;;;;;750885;187;619518;-69
2023/03/16 09:48:49;;;;;;;5.73;3.60;;;;;;;;;;754919;187;621912;-68
2023/03/16 09:51:16;;;;;;;5.67;3.10;;;;;;;;;;754354;187;625703;-69
2023/03/16 09:53:42;;;;;;;6.70;3.20;;;;;;;;;;753742;187;614962;-67
2023/03/16 09:56:09;;;;;;;6.27;3.00;;;;;;;;;;754356;187;627454;-66
2023/03/16 09:58:35;;;;;;;7.37;3.20;;;;;;;;;;756885;187;613265;-68
2023/03/16 10:01:17;;;;;;;9.13;3.73;;;;;;;;;;746734;188;645680;-69
2023/03/16 10:03:48;;;;;;;4.90;2.77;;;;;;;;;;748300;184;625540;-67
2023/03/16 10:06:15;;;;;;;5.80;2.87;;;;;;;;;;741190;190;627258;-67
2023/03/16 10:08:40;;;;;;;4.10;2.40;;;;;;;;;;746596;190;624705;-67
2023/03/16 10:11:12;;;;;;;5.00;2.70;;;;;;;;;;756511;183;625192;-66
2023/03/16 10:13:41;;;;;;;6.90;3.13;;;;;;;;;;753671;185;633659;-68
2023/03/16 10:16:08;;;;;;;4.70;3.10;;;;;;;;;;753640;186;635718;-68
2023/03/16 10:18:33;;;;;;;7.37;3.90;;;;;;;;;;758936;186;630543;-66
2023/03/16 10:20:59;;;;;;;36.93;17.70;;;;;;;;;;752328;187;626452;-66
2023/03/16 10:23:25;;;;;;;7.40;2.67;;;;;;;;;;750792;187;624042;-68
2023/03/16 10:25:51;;;;;;;8.00;3.43;;;;;;;;;;752045;186;626755;-68
2023/03/16 10:28:17;;;;;;;5.80;2.70;;;;;;;;;;752768;187;619167;-66
2023/03/16 10:30:42;;;;;;;5.43;2.77;;;;;;;;;;753158;186;619760;-68
2023/03/16 10:33:12;;;;;;;9.37;3.73;;;;;;;;;;753731;186;626624;-67
2023/03/16 10:35:40;;;;;;;7.73;2.53;;;;;;;;;;758717;186;629583;-66
2023/03/16 10:38:06;;;;;;;7.60;3.17;;;;;;;;;;750976;187;631372;-67
2023/03/16 10:40:32;;;;;;;6.60;2.80;;;;;;;;;;751916;187;618828;-67
2023/03/16 10:42:57;;;;;;;9.20;3.50;;;;;;;;;;751141;187;629459;-67
2023/03/16 10:45:24;;;;;;;6.60;3.43;;;;;;;;;;747867;187;629566;-71
2023/03/16 10:47:49;;;;;;;13.57;4.97;;;;;;;;;;746785;187;637325;-68
2023/03/16 10:50:16;;;;;;;12.07;4.27;;;;;;;;;;753304;186;630055;-69
2023/03/16 10:52:42;;;;;;;4.23;2.23;;;;;;;;;;753910;187;616524;-69
2023/03/16 10:55:09;;;;;;;5.87;2.90;;;;;;;;;;749881;186;624284;-69
2023/03/16 10:57:34;;;;;;;3.70;2.13;;;;;;;;;;750148;186;627967;-67
2023/03/16 11:00:06;;;;;;;5.30;2.60;;;;;;;;;;753279;186;633133;-67
2023/03/16 11:02:29;;;;;;;5.47;2.97;;;;;;;;;;751498;187;619347;-68
2023/03/16 11:04:56;;;;;;;7.27;3.27;;;;;;;;;;750717;187;634147;-66
2023/03/16 11:07:23;;;;;;;5.80;2.73;;;;;;;;;;754277;187;630827;-70
2023/03/16 11:09:46;;;;;;;8.17;2.80;;;;;;;;;;755936;187;623429;-70
2023/03/16 11:12:14;;;;;;;5.53;2.17;;;;;;;;;;749888;187;629201;-70
2023/03/16 11:14:40;;;;;;;6.70;2.50;;;;;;;;;;752921;187;624634;-70
2023/03/16 11:17:08;;;;;;;7.20;2.57;;;;;;;;;;753247;187;619572;-71
2023/03/16 11:19:33;;;;;;;4.83;2.17;;;;;;;;;;748958;186;621280;-70
2023/03/16 11:21:58;;;;;;;6.87;2.80;;;;;;;;;;753613;185;630718;-66
2023/03/16 11:24:25;;;;;;;9.40;2.50;;;;;;;;;;754379;184;628776;-69
2023/03/16 11:26:51;;;;;;;6.50;2.80;;;;;;;;;;756419;186;632298;-69
2023/03/16 11:29:17;;;;;;;4.70;2.83;;;;;;;;;;752104;186;628583;-66
2023/03/16 11:31:48;;;;;;;4.70;2.90;;;;;;;;;;751014;187;637095;-67
2023/03/16 11:34:15;;;;;;;5.13;2.30;;;;;;;;;;755084;187;615949;-69
2023/03/16 11:36:40;;;;;;;3.10;1.97;;;;;;;;;;748939;188;629559;-66
2023/03/16 11:39:06;;;;;;;4.50;2.30;;;;;;;;;;749388;187;619603;-66
2023/03/16 11:41:33;;;;;;;4.87;2.30;;;;;;;;;;751188;185;625239;-67
2023/03/16 11:44:00;;;;;;;9.70;3.30;;;;;;;;;;751639;186;626096;-70
2023/03/16 11:46:26;;;;;;;7.03;2.10;;;;;;;;;;749485;187;638872;-67
2023/03/16 11:49:07;;;;;;;7.80;2.47;;;;;;;;;;753433;187;621914;-67
2023/03/16 11:51:35;;;;;;;3.60;2.20;;;;;;;;;;751891;187;629836;-67
2023/03/16 11:54:00;;;;;;;3.13;2.00;;;;;;;;;;756444;187;616517;-68
2023/03/16 11:56:35;;;;;;;7.97;2.60;;;;;;;;;;748285;188;636250;-67
2023/03/16 11:59:16;;;;;;;25.03;16.00;;;;;;;;;;748845;188;634261;-66
2023/03/16 12:01:42;;;;;;;8.20;2.80;;;;;;;;;;742695;187;670716;-70
2023/03/16 12:04:15;;;;;;;25.03;14.10;;;;;;;;;;746501;188;628645;-71
2023/03/16 12:07:00;;;;;;;6.37;2.90;;;;;;;;;;740227;189;620546;-67
2023/03/16 12:09:42;;;;;;;4.80;2.50;;;;;;;;;;748231;186;631206;-70
2023/03/16 12:12:07;;;;;;;7.50;2.47;;;;;;;;;;757865;186;628560;-67
2023/03/16 12:14:34;;;;;;;8.30;2.10;;;;;;;;;;753372;187;628953;-66
2023/03/16 12:17:00;;;;;;;8.67;3.47;;;;;;;;;;753664;186;632757;-69
2023/03/16 12:19:26;;;;;;;11.10;3.67;;;;;;;;;;751366;187;636564;-70
2023/03/16 12:21:53;;;;;;;5.83;2.93;;;;;;;;;;750801;188;635562;-70
2023/03/16 12:24:18;;;;;;;3.40;1.90;;;;;;;;;;741222;188;631281;-69
2023/03/16 12:26:48;;;;;;;5.70;3.03;;;;;;;;;;747613;187;618820;-69
2023/03/16 12:29:18;;;;;;;3.97;2.57;;;;;;;;;;750771;188;627344;-69
2023/03/16 12:31:48;;;;;;;14.30;3.80;;;;;;;;;;740625;186;628217;-66
2023/03/16 12:34:15;;;;;;;9.40;3.80;;;;;;;;;;748346;188;638119;-66
2023/03/16 12:36:40;;;;;;;11.30;5.13;;;;;;;;;;736625;188;627445;-68
2023/03/16 12:39:08;;;;;;;8.93;3.80;;;;;;;;;;756167;187;626649;-67
2023/03/16 12:41:39;;;;;;;5.73;2.40;;;;;;;;;;745431;189;631307;-65
2023/03/16 12:44:07;;;;;;;5.33;2.50;;;;;;;;;;753885;186;635952;-64
2023/03/16 12:46:38;;;;;;;11.73;4.03;;;;;;;;;;750256;187;639329;-67
2023/03/16 12:49:04;;;;;;;5.43;2.30;;;;;;;;;;755127;187;632329;-67
2023/03/16 12:51:33;;;;;;;10.17;2.07;;;;;;;;;;754102;186;634739;-66
2023/03/16 12:53:59;;;;;;;8.70;1.77;;;;;;;;;;754286;184;635186;-68
2023/03/16 12:56:26;;;;;;;6.07;2.43;;;;;;;;;;754119;187;618763;-68
2023/03/16 12:58:52;;;;;;;4.97;2.13;;;;;;;;;;757616;187;616908;-69
2023/03/16 13:01:18;;;;;;;4.57;2.53;;;;;;;;;;754491;187;637682;-66
2023/03/16 13:03:43;;;;;;;7.60;2.20;;;;;;;;;;754721;186;636063;-68
2023/03/16 13:06:15;;;;;;;6.07;1.83;;;;;;;;;;758551;186;617493;-66
2023/03/16 13:08:41;;;;;;;4.33;2.33;;;;;;;;;;759506;186;631393;-66
2023/03/16 13:11:08;;;;;;;8.60;1.87;;;;;;;;;;750956;187;627050;-69
2023/03/16 13:13:33;;;;;;;7.40;1.83;;;;;;;;;;751306;187;624681;-66
2023/03/16 13:16:02;;;;;;;5.40;1.90;;;;;;;;;;754391;187;638427;-69
2023/03/16 13:18:27;;;;;;;5.37;1.80;;;;;;;;;;750993;187;630582;-69
2023/03/16 13:20:54;;;;;;;6.27;2.10;;;;;;;;;;748919;187;620057;-67
2023/03/16 13:23:22;;;;;;;4.00;1.90;;;;;;;;;;750775;188;624671;-70
2023/03/16 13:25:54;;;;;;;4.43;1.60;;;;;;;;;;750609;187;619741;-70
2023/03/16 13:28:20;;;;;;;12.43;2.60;;;;;;;;;;749990;187;622357;-67
2023/03/16 13:30:46;;;;;;;4.23;2.30;;;;;;;;;;745800;187;637091;-67
2023/03/16 13:33:18;;;;;;;6.33;2.10;;;;;;;;;;755313;186;625024;-70
2023/03/16 13:35:44;;;;;;;3.80;1.63;;;;;;;;;;755226;187;631436;-66
2023/03/16 13:38:12;;;;;;;7.47;3.20;;;;;;;;;;748942;187;647459;-70
2023/03/16 13:40:38;;;;;;;11.07;4.27;;;;;;;;;;750389;187;632823;-66
2023/03/16 13:43:03;;;;;;;6.80;2.33;;;;;;;;;;753314;187;641181;-66
2023/03/16 13:45:31;;;;;;;5.10;3.10;;;;;;;;;;750965;186;655776;-69
2023/03/16 13:47:57;;;;;;;4.90;1.97;;;;;;;;;;751928;186;638631;-68
2023/03/16 13:50:23;;;;;;;8.30;3.07;;;;;;;;;;758227;184;636916;-68
2023/03/16 13:52:49;;;;;;;6.40;2.27;;;;;;;;;;753043;186;619469;-65
2023/03/16 13:55:15;;;;;;;7.47;1.77;;;;;;;;;;753415;186;625205;-66
2023/03/16 13:57:41;;;;;;;8.00;3.03;;;;;;;;;;751555;186;620174;-68
2023/03/16 14:00:14;;;;;;;5.53;2.33;;;;;;;;;;754614;187;619105;-69
2023/03/16 14:02:41;;;;;;;5.03;2.90;;;;;;;;;;751843;186;624741;-67
2023/03/16 14:05:08;;;;;;;8.13;3.27;;;;;;;;;;750929;186;627533;-68
2023/03/16 14:07:34;;;;;;;8.70;3.20;;;;;;;;;;753299;186;634800;-67
2023/03/16 14:10:00;;;;;;;8.90;5.03;;;;;;;;;;754908;186;630813;-66
2023/03/16 14:12:26;;;;;;;5.27;2.57;;;;;;;;;;752297;186;630977;-70
2023/03/16 14:14:51;;;;;;;6.70;2.30;;;;;;;;;;753320;186;631194;-70
2023/03/16 14:17:18;;;;;;;6.90;3.40;;;;;;;;;;756743;186;630570;-66